Armagh, PA

7:55 PM EDT on March 31, 2015 (GMT -0400)
Seward | | Change Station
CLOSE
Current Station
Personal Weather Station
Location: Seward, PA
Elevation: 1138 ft
Nearby Weather Stations

Elev 1138 ft 40.41 °N, 79.02 °W | Updated 5 minutes ago

Overcast
Overcast
39.9 °F
Feels Like 40 °F
N
0.0
Wind Variable Wind from NNW
Gusts 9.0 mph

Today
High -- | Low -- °F
--% Chance of Precip.
Yesterday
High -- | Low -- °F
Precip. -- in
7:01 AM 7:39 PM
Waxing Gibbous, 89% visible
Pressure 29.78 in
Visibility 10.0 miles
Clouds Overcast 900 ft
Windchill 40 °F
Dew Point 35 °F
Humidity 81%
Rainfall 0.00 in
Snow Depth Not available.
UV 0 out of 12
Pollen 4.80 out of 12
Air Quality Not available.
Flu Activity Not available.
SPECI KJST 312340Z AUTO 32017G21KT 10SM OVC009 02/00 A2978 RMK AO2 RAB15E24 CIG 007V011 P0000 T00220000

More Conditions Fewer Conditions

Pressure 29.78 in
Visibility 10.0 miles
Clouds Overcast 900 ft
Windchill 40 °F
Dew Point 35 °F
Humidity 81%
Rainfall 0.00 in
Snow Depth Not available.
UV 0 out of 12
Pollen 4.80 out of 12
Air Quality Not available.
Flu Activity Not available.
SPECI KJST 312340Z AUTO 32017G21KT 10SM OVC009 02/00 A2978 RMK AO2 RAB15E24 CIG 007V011 P0000 T00220000

More Conditions Fewer Conditions

10-Day Weather Forecast

Almanac

Astronomy

Mar. 31, 2015 Rise Set
Actual Time
Civil Twilight
Nautical Twilight
Astronomical Twilight
Moon
Length of Visible Light
Length of Day
Tomorrow will be .
, % of the Moon is Illuminated

Today's Extremes

State Highs State Lows

Community

WunderPhotos

Upload Photos

1,809,877 photos uploaded!

WunderBlogs® & News

Nearby

Air Quality

  Air Quality AQ Index Pollutant
Not available.

Snow Depth

Station Depth Elevation

Earthquake Activity

City Distance Mag. Time & Date
Minimum magnitude displayed is 2.5.

Coastal Water Temperatures

Place Temperature

Stations

Nearby Weather Stations

Station Location Temp. Windchill Dew Point Humidity Wind Precip. Elev Updated Type